Terminal Aerodrome Forecast
Issued by NWS Charleston, WV

Home | Current Version | Previous Version | Text Only | Print | Product List | Glossary On
Versions: 1 2 3 4 5 6 7 8 9 10 11 12 13 14 15 16 17 18 19 20 21 22 23 24 25 26 27 28
000
FTUS41 KRLX 261500 AAB
TAFBKW
TAF AMD
KBKW 261509Z 2615/2712 35004KT 1/4SM FG OVC002
     FM261600 34004KT 2SM BR OVC004
     FM261700 34004KT 5SM BR OVC008
     FM261800 32005KT P6SM BKN015
     FM261900 33007KT P6SM SCT025
     FM262200 33008KT P6SM BKN035=

USA.gov is the U.S. government's official web portal to all federal, state and local government web resources and services.